Terminal Aerodrome Forecast
Issued by NWS Tampa Bay Area, FL

Home | Current Version | Previous Version | Text Only | Print | Product List | Glossary On
Versions: 1 2 3 4 5 6 7 8 9 10 11 12 13 14 15 16 17 18 19 20 21 22 23 24 25
000
FTUS42 KTBW 150520
TAFTPA
TAF
KTPA 150520Z 1506/1612 18006KT P6SM SCT035 BKN060
     FM151500 23007KT P6SM FEW025 BKN060
     FM152100 27008KT P6SM FEW050 SCT250
     FM160200 33005KT P6SM FEW025 SCT250
     FM160600 02005KT P6SM FEW040 SCT250=

USA.gov is the U.S. government's official web portal to all federal, state and local government web resources and services.